Time;durP1;ratioP1;P1;durP2;ratioP2;P2;SDS_P1;SDS_P2;PMS_P1;PMS_P2;Temp;Humidity;BMP_temperature;BMP_pressure;BME280_temperature;BME280_humidity;BME280_pressure;Samples;Min_cycle;Max_cycle;Signal;HPM_P1;HPM_P2
2023/09/23 00:00:23;;;;;;;0.82;0.20;;;11.00;99.90;;;;;;5021889;28;20039;-83
2023/09/23 00:02:49;;;;;;;0.32;0.20;;;11.00;99.90;;;;;;5041040;28;20021;-83
2023/09/23 00:05:16;;;;;;;1.88;0.30;;;11.00;99.90;;;;;;5042207;28;20099;-84
2023/09/23 00:07:43;;;;;;;0.63;0.20;;;11.00;99.90;;;;;;5059709;28;20032;-83
2023/09/23 00:10:10;;;;;;;0.52;0.30;;;11.00;99.90;;;;;;5024106;28;20494;-83
2023/09/23 00:12:43;;;;;;;0.30;0.20;;;11.00;99.90;;;;;;5040784;28;20025;-83
2023/09/23 00:15:12;;;;;;;0.50;0.20;;;11.10;99.90;;;;;;5058340;28;20112;-83
2023/09/23 00:17:39;;;;;;;0.75;0.22;;;11.00;99.90;;;;;;5057940;28;20543;-83
2023/09/23 00:20:16;;;;;;;0.35;0.10;;;11.00;99.90;;;;;;5039977;28;20037;-83
2023/09/23 00:22:45;;;;;;;0.88;0.20;;;11.00;99.90;;;;;;5041939;28;20413;-83
2023/09/23 00:25:11;;;;;;;0.82;0.20;;;11.00;99.90;;;;;;5040106;28;20487;-83
2023/09/23 00:27:36;;;;;;;2.08;0.17;;;10.90;99.90;;;;;;5023437;28;20060;-83
2023/09/23 00:30:04;;;;;;;0.10;0.10;;;10.90;99.90;;;;;;5023639;28;20029;-83
2023/09/23 00:32:32;;;;;;;0.63;0.20;;;10.90;99.90;;;;;;5023603;28;20481;-83
2023/09/23 00:34:59;;;;;;;0.30;0.08;;;10.90;99.90;;;;;;5023804;28;20051;-83
2023/09/23 00:37:25;;;;;;;0.20;0.10;;;10.90;99.90;;;;;;5039944;28;20031;-83
2023/09/23 00:39:51;;;;;;;0.40;0.20;;;10.90;99.90;;;;;;5057566;28;20021;-83
2023/09/23 00:42:21;;;;;;;3.13;0.30;;;10.80;99.90;;;;;;5040146;28;20025;-83
2023/09/23 00:44:47;;;;;;;0.30;0.10;;;10.80;99.90;;;;;;5057653;28;20096;-83
2023/09/23 00:47:15;;;;;;;0.10;0.10;;;10.80;99.90;;;;;;5023845;28;20057;-83
2023/09/23 00:49:43;;;;;;;0.55;0.25;;;10.80;99.90;;;;;;5040027;28;20057;-83
2023/09/23 00:52:09;;;;;;;0.20;0.08;;;10.80;99.90;;;;;;5039975;28;20079;-83
2023/09/23 00:54:36;;;;;;;0.45;0.25;;;10.80;99.90;;;;;;5040647;28;20099;-83
2023/09/23 00:57:06;;;;;;;0.30;0.20;;;10.80;99.90;;;;;;5024359;28;20036;-84
2023/09/23 00:59:36;;;;;;;0.30;0.20;;;10.80;99.90;;;;;;5057868;28;20049;-83
2023/09/23 01:02:05;;;;;;;0.17;0.10;;;10.80;99.90;;;;;;5038873;28;20770;-83
2023/09/23 01:04:31;;;;;;;0.10;0.10;;;10.80;99.90;;;;;;5039882;28;20033;-83
2023/09/23 01:06:59;;;;;;;1.02;0.22;;;10.80;99.90;;;;;;5023850;28;20078;-83
2023/09/23 01:09:26;;;;;;;0.22;0.13;;;10.80;99.90;;;;;;5039402;28;20374;-83
2023/09/23 01:11:52;;;;;;;0.10;0.10;;;10.90;99.90;;;;;;5038287;28;20033;-83
2023/09/23 01:14:22;;;;;;;1.48;0.10;;;10.90;99.90;;;;;;5039332;28;20029;-83
2023/09/23 01:16:52;;;;;;;1.45;0.10;;;10.90;99.90;;;;;;5039703;28;20120;-83
2023/09/23 01:19:18;;;;;;;0.30;0.10;;;10.90;99.90;;;;;;5039412;28;20195;-83
2023/09/23 01:21:49;;;;;;;0.28;0.20;;;10.90;99.90;;;;;;5022983;28;20565;-83
2023/09/23 01:24:18;;;;;;;0.20;0.20;;;10.80;99.90;;;;;;5040182;28;20036;-83
2023/09/23 01:26:52;;;;;;;0.22;0.15;;;10.80;99.90;;;;;;5056953;28;20104;-83
2023/09/23 01:29:26;;;;;;;0.47;0.25;;;10.70;99.90;;;;;;5039164;28;20108;-83
2023/09/23 01:32:04;;;;;;;2.05;0.20;;;10.70;99.90;;;;;;5057026;28;20020;-83
2023/09/23 01:34:30;;;;;;;0.90;0.10;;;10.70;99.90;;;;;;5038873;28;20112;-83
2023/09/23 01:36:55;;;;;;;0.17;0.10;;;10.80;99.90;;;;;;5022617;28;20072;-83
2023/09/23 01:39:23;;;;;;;0.10;0.10;;;10.80;99.90;;;;;;5038619;28;20477;-83
2023/09/23 01:41:49;;;;;;;0.30;0.15;;;10.80;99.90;;;;;;5037496;28;20017;-83
2023/09/23 01:44:16;;;;;;;0.22;0.20;;;10.80;99.90;;;;;;5021547;28;20079;-83
2023/09/23 01:46:42;;;;;;;0.20;0.17;;;10.80;99.90;;;;;;5022281;28;20378;-83
2023/09/23 01:49:08;;;;;;;0.40;0.17;;;10.90;99.90;;;;;;5055757;28;20029;-83
2023/09/23 01:51:34;;;;;;;0.15;0.10;;;10.90;99.90;;;;;;5009346;28;20378;-83
2023/09/23 01:54:00;;;;;;;0.30;0.20;;;10.80;99.90;;;;;;5018811;28;20052;-83
2023/09/23 01:56:26;;;;;;;0.20;0.10;;;10.90;99.90;;;;;;5031432;28;20470;-83
2023/09/23 01:58:51;;;;;;;0.10;0.10;;;10.90;99.90;;;;;;5019774;28;20053;-83
2023/09/23 02:01:17;;;;;;;0.10;0.10;;;10.90;99.90;;;;;;5023653;28;20183;-83
2023/09/23 02:03:43;;;;;;;0.65;0.20;;;10.90;99.90;;;;;;5022617;28;20120;-83
2023/09/23 02:06:09;;;;;;;0.38;0.20;;;10.90;99.90;;;;;;5038378;28;20091;-83
2023/09/23 02:08:35;;;;;;;0.17;0.17;;;10.90;99.90;;;;;;5037987;28;20025;-83
2023/09/23 02:11:02;;;;;;;0.40;0.28;;;10.90;99.90;;;;;;5038452;28;20033;-83
2023/09/23 02:13:28;;;;;;;0.55;0.10;;;10.90;99.90;;;;;;5022151;28;20508;-83
2023/09/23 02:15:55;;;;;;;0.63;0.20;;;10.90;99.90;;;;;;5056388;28;20074;-83
2023/09/23 02:18:21;;;;;;;0.57;0.20;;;10.90;99.90;;;;;;5005875;28;20033;-83
2023/09/23 02:20:47;;;;;;;0.50;0.30;;;10.80;99.90;;;;;;5017802;28;20036;-83
2023/09/23 02:23:14;;;;;;;2.13;0.50;;;10.80;99.90;;;;;;5001676;28;20025;-83
2023/09/23 02:25:40;;;;;;;0.60;0.30;;;10.70;99.90;;;;;;5018581;28;20538;-83
2023/09/23 02:28:05;;;;;;;0.60;0.32;;;10.70;99.90;;;;;;4985746;28;20060;-83
2023/09/23 02:30:32;;;;;;;0.88;0.60;;;10.70;99.90;;;;;;5025874;28;20397;-83
2023/09/23 02:32:58;;;;;;;2.10;0.60;;;10.70;99.90;;;;;;5004368;28;20084;-83
2023/09/23 02:35:25;;;;;;;1.00;0.55;;;10.80;99.90;;;;;;5035891;28;20112;-83
2023/09/23 02:37:50;;;;;;;1.40;0.70;;;10.80;99.90;;;;;;5001736;28;20497;-83
2023/09/23 02:40:17;;;;;;;1.05;0.68;;;10.80;99.90;;;;;;5024128;28;20078;-83
2023/09/23 02:42:53;;;;;;;0.90;0.57;;;10.80;99.90;;;;;;5021092;28;20032;-83
2023/09/23 02:45:20;;;;;;;0.77;0.52;;;10.70;99.90;;;;;;5036698;28;20021;-83
2023/09/23 02:47:46;;;;;;;1.00;0.60;;;10.70;99.90;;;;;;5001471;28;20474;-83
2023/09/23 02:50:14;;;;;;;0.68;0.20;;;10.70;99.90;;;;;;5003402;28;20037;-83
2023/09/23 02:52:40;;;;;;;2.42;0.32;;;10.70;99.90;;;;;;5053731;28;20124;-83
2023/09/23 02:55:15;;;;;;;0.15;0.15;;;10.70;99.90;;;;;;5037060;28;20021;-83
2023/09/23 02:57:44;;;;;;;0.32;0.20;;;10.80;99.90;;;;;;5037331;28;20112;-83
2023/09/23 03:00:17;;;;;;;1.45;0.20;;;10.80;99.90;;;;;;5018414;28;20045;-83
2023/09/23 03:02:53;;;;;;;0.50;0.20;;;10.80;99.90;;;;;;5035557;28;20013;-83
2023/09/23 03:05:25;;;;;;;0.30;0.20;;;10.80;99.90;;;;;;5017700;28;20033;-83
2023/09/23 03:07:51;;;;;;;0.70;0.30;;;10.80;99.90;;;;;;5034364;28;20116;-83
2023/09/23 03:10:29;;;;;;;0.28;0.20;;;10.80;99.90;;;;;;4999359;28;20366;-83
2023/09/23 03:13:02;;;;;;;0.60;0.30;;;10.80;99.90;;;;;;5055752;28;20036;-83
2023/09/23 03:15:34;;;;;;;0.70;0.50;;;10.80;99.90;;;;;;5037784;28;20025;-83
2023/09/23 03:18:00;;;;;;;1.35;0.40;;;10.80;99.90;;;;;;5038704;28;20112;-83
2023/09/23 03:20:26;;;;;;;0.68;0.40;;;10.80;99.90;;;;;;5053840;28;20032;-83
2023/09/23 03:22:54;;;;;;;0.73;0.40;;;10.80;99.90;;;;;;5037450;28;20029;-83
2023/09/23 03:25:20;;;;;;;0.73;0.30;;;10.80;99.90;;;;;;5037302;28;20028;-83
2023/09/23 03:27:52;;;;;;;0.38;0.30;;;10.80;99.90;;;;;;5037136;28;20021;-83
2023/09/23 03:30:19;;;;;;;0.90;0.40;;;10.80;99.90;;;;;;5038098;28;20045;-83
2023/09/23 03:32:45;;;;;;;0.60;0.30;;;10.80;99.90;;;;;;5038187;28;20025;-83
2023/09/23 03:35:20;;;;;;;0.85;0.40;;;10.80;99.90;;;;;;5037063;28;20033;-82
2023/09/23 03:37:50;;;;;;;0.98;0.25;;;10.80;99.90;;;;;;5037497;28;20091;-82
2023/09/23 03:40:20;;;;;;;0.55;0.20;;;10.80;99.90;;;;;;5036636;28;20029;-82
2023/09/23 03:42:50;;;;;;;0.17;0.17;;;10.80;99.90;;;;;;5035234;28;20029;-83
2023/09/23 03:45:17;;;;;;;0.55;0.25;;;10.80;99.90;;;;;;5010461;28;20045;-83
2023/09/23 03:47:46;;;;;;;0.30;0.20;;;10.80;99.90;;;;;;5019944;28;20033;-83
2023/09/23 03:50:15;;;;;;;0.55;0.20;;;10.80;99.90;;;;;;5037477;28;20029;-83
2023/09/23 03:52:42;;;;;;;0.38;0.20;;;10.80;99.90;;;;;;5037843;28;20025;-84
2023/09/23 03:55:11;;;;;;;0.65;0.40;;;10.80;99.90;;;;;;5031686;28;20120;-84
2023/09/23 03:57:38;;;;;;;0.40;0.20;;;10.80;99.90;;;;;;5001805;28;20041;-84
2023/09/23 04:00:16;;;;;;;0.65;0.30;;;10.80;99.90;;;;;;5035112;28;20029;-84
2023/09/23 04:02:47;;;;;;;0.30;0.20;;;10.80;99.90;;;;;;5025964;28;20057;-82
2023/09/23 04:05:14;;;;;;;1.92;0.22;;;10.80;99.90;;;;;;5034060;28;20474;-82
2023/09/23 04:07:41;;;;;;;0.60;0.30;;;10.80;99.90;;;;;;5019233;28;20041;-84
2023/09/23 04:10:09;;;;;;;0.15;0.15;;;10.80;99.90;;;;;;5019368;28;20037;-84
2023/09/23 04:12:34;;;;;;;0.45;0.30;;;10.80;99.90;;;;;;5035588;28;20386;-84
2023/09/23 04:15:00;;;;;;;0.32;0.25;;;10.80;99.90;;;;;;5012407;28;20025;-84
2023/09/23 04:17:26;;;;;;;1.40;0.28;;;10.80;99.90;;;;;;5027555;28;20100;-84
2023/09/23 04:19:54;;;;;;;0.40;0.10;;;10.80;99.90;;;;;;5035370;28;20029;-84
2023/09/23 04:22:20;;;;;;;0.50;0.30;;;10.90;99.90;;;;;;5020454;28;20381;-84
2023/09/23 04:24:46;;;;;;;5.63;4.35;;;10.90;99.90;;;;;;5020312;28;20037;-84
2023/09/23 04:27:11;;;;;;;1.60;1.10;;;10.80;99.90;;;;;;5016823;28;20030;-84
2023/09/23 04:29:37;;;;;;;2.50;1.60;;;10.80;99.90;;;;;;4999714;28;20033;-83
2023/09/23 04:32:03;;;;;;;2.20;1.42;;;10.70;99.90;;;;;;4984085;28;20120;-84
2023/09/23 04:34:29;;;;;;;2.28;0.77;;;10.70;99.90;;;;;;4986073;28;20033;-84
2023/09/23 04:36:56;;;;;;;1.27;0.70;;;10.70;99.90;;;;;;5017632;28;20048;-83
2023/09/23 04:39:22;;;;;;;0.50;0.40;;;10.70;99.90;;;;;;4985415;28;20029;-83
2023/09/23 04:41:48;;;;;;;0.82;0.30;;;10.70;99.90;;;;;;5013714;28;20393;-83
2023/09/23 04:44:14;;;;;;;0.40;0.30;;;10.70;99.90;;;;;;5003371;28;20025;-84
2023/09/23 04:46:40;;;;;;;0.98;0.30;;;10.70;99.90;;;;;;5010810;28;20030;-84
2023/09/23 04:49:05;;;;;;;0.38;0.30;;;10.70;99.90;;;;;;5035673;28;20030;-84
2023/09/23 04:51:31;;;;;;;0.13;0.10;;;10.70;99.90;;;;;;5015855;28;20128;-84
2023/09/23 04:53:57;;;;;;;0.25;0.20;;;10.70;99.90;;;;;;5039284;28;20087;-84
2023/09/23 04:56:23;;;;;;;1.20;0.40;;;10.70;99.90;;;;;;5006993;28;20060;-84
2023/09/23 04:58:58;;;;;;;0.22;0.20;;;10.70;99.90;;;;;;5007308;28;20037;-84
2023/09/23 05:01:24;;;;;;;0.40;0.20;;;10.70;99.90;;;;;;5026481;28;20540;-84
2023/09/23 05:03:52;;;;;;;0.38;0.30;;;10.70;99.90;;;;;;5039653;28;20516;-84
2023/09/23 05:06:17;;;;;;;1.33;0.45;;;10.70;99.90;;;;;;5023481;28;20068;-83
2023/09/23 05:08:43;;;;;;;0.85;0.40;;;10.70;99.90;;;;;;5022820;28;20044;-84
2023/09/23 05:11:11;;;;;;;1.00;0.43;;;10.70;99.90;;;;;;5002997;28;20060;-84
2023/09/23 05:13:37;;;;;;;0.35;0.20;;;10.70;99.90;;;;;;5017217;28;20485;-84
2023/09/23 05:16:03;;;;;;;1.27;0.40;;;10.70;99.90;;;;;;5005821;28;20040;-84
2023/09/23 05:18:29;;;;;;;0.45;0.25;;;10.70;99.90;;;;;;5023805;28;20501;-84
2023/09/23 05:20:55;;;;;;;0.55;0.30;;;10.70;99.90;;;;;;5039877;28;20036;-84
2023/09/23 05:23:23;;;;;;;0.73;0.40;;;10.70;99.90;;;;;;5006178;28;20481;-84
2023/09/23 05:25:50;;;;;;;0.65;0.38;;;10.70;99.90;;;;;;5022445;28;20025;-85
2023/09/23 05:28:16;;;;;;;0.60;0.30;;;10.70;99.90;;;;;;5038185;28;20029;-84
2023/09/23 05:30:44;;;;;;;0.90;0.40;;;10.70;99.90;;;;;;5035377;28;20052;-84
2023/09/23 05:33:10;;;;;;;0.47;0.30;;;10.70;99.90;;;;;;5026792;28;20032;-84
2023/09/23 05:35:38;;;;;;;2.80;0.40;;;10.70;99.90;;;;;;5009172;28;20560;-84
2023/09/23 05:38:04;;;;;;;1.08;0.40;;;10.80;99.90;;;;;;5023533;28;20029;-84
2023/09/23 05:40:30;;;;;;;1.00;0.60;;;10.80;99.90;;;;;;5017299;28;20028;-84
2023/09/23 05:42:55;;;;;;;0.80;0.40;;;10.70;99.90;;;;;;5039796;28;20035;-84
2023/09/23 05:45:25;;;;;;;0.50;0.35;;;10.70;99.90;;;;;;5041403;28;20049;-85
2023/09/23 05:47:54;;;;;;;0.75;0.50;;;10.60;99.90;;;;;;5059260;28;20108;-84
2023/09/23 05:50:20;;;;;;;1.13;0.55;;;10.60;99.90;;;;;;5032607;28;20025;-84
2023/09/23 05:52:47;;;;;;;0.85;0.38;;;10.60;99.90;;;;;;5010197;28;20044;-84
2023/09/23 05:55:13;;;;;;;0.82;0.45;;;10.60;99.90;;;;;;5015336;28;20033;-85
2023/09/23 05:57:40;;;;;;;0.68;0.30;;;10.60;99.90;;;;;;5036811;28;20565;-84
2023/09/23 06:00:12;;;;;;;0.80;0.30;;;10.70;99.90;;;;;;5038821;28;20029;-84
2023/09/23 06:02:38;;;;;;;1.50;0.50;;;10.70;99.90;;;;;;5021777;28;20088;-84
2023/09/23 06:05:04;;;;;;;0.60;0.30;;;10.70;99.90;;;;;;5036202;28;20033;-85
2023/09/23 06:07:33;;;;;;;0.85;0.47;;;10.70;99.90;;;;;;5005759;28;20032;-84
2023/09/23 06:09:59;;;;;;;0.50;0.40;;;10.80;99.90;;;;;;5035646;28;20063;-84
2023/09/23 06:12:29;;;;;;;3.80;0.60;;;10.80;99.90;;;;;;5018620;28;20036;-84
2023/09/23 06:14:59;;;;;;;2.90;0.60;;;10.80;99.90;;;;;;5026878;28;20032;-84
2023/09/23 06:17:27;;;;;;;0.52;0.40;;;10.80;99.90;;;;;;5056132;28;20366;-84
2023/09/23 06:19:56;;;;;;;1.20;0.50;;;10.80;99.90;;;;;;5021970;28;20033;-84
2023/09/23 06:22:22;;;;;;;0.60;0.40;;;10.80;99.90;;;;;;5039110;28;20021;-84
2023/09/23 06:24:52;;;;;;;0.90;0.50;;;10.80;99.90;;;;;;5022398;28;20033;-84
2023/09/23 06:27:18;;;;;;;1.00;0.65;;;10.70;99.90;;;;;;5022364;28;20052;-84
2023/09/23 06:29:44;;;;;;;0.82;0.40;;;10.70;99.90;;;;;;5038330;28;20504;-84
2023/09/23 06:32:10;;;;;;;1.15;0.50;;;10.70;99.90;;;;;;5021119;28;20029;-84
2023/09/23 06:34:36;;;;;;;1.48;0.63;;;10.70;99.90;;;;;;5021644;28;20116;-84
2023/09/23 06:37:02;;;;;;;2.28;0.40;;;10.70;99.90;;;;;;5021784;28;20029;-84
2023/09/23 06:39:28;;;;;;;0.73;0.50;;;10.70;99.90;;;;;;5005577;28;20079;-84
2023/09/23 06:41:54;;;;;;;0.95;0.40;;;10.80;99.90;;;;;;5022240;28;20047;-84
2023/09/23 06:44:20;;;;;;;0.50;0.40;;;10.80;99.90;;;;;;5004684;28;20428;-85
2023/09/23 06:46:46;;;;;;;0.50;0.30;;;10.80;99.90;;;;;;5040973;28;20178;-86
2023/09/23 06:49:12;;;;;;;0.70;0.40;;;10.80;99.90;;;;;;5026015;28;20052;-84
2023/09/23 06:51:37;;;;;;;0.47;0.28;;;10.80;99.90;;;;;;5022235;28;20091;-84
2023/09/23 06:54:04;;;;;;;0.80;0.40;;;10.90;99.90;;;;;;5018568;28;20033;-84
2023/09/23 06:56:30;;;;;;;0.70;0.40;;;10.90;99.90;;;;;;5017721;28;20039;-84
2023/09/23 06:58:56;;;;;;;1.00;0.45;;;10.90;99.90;;;;;;5002929;28;20097;-84
2023/09/23 07:01:21;;;;;;;1.10;0.50;;;10.90;99.90;;;;;;5003100;28;20076;-84
2023/09/23 07:03:48;;;;;;;0.88;0.45;;;10.90;99.90;;;;;;5034661;28;20389;-84
2023/09/23 07:06:13;;;;;;;0.60;0.40;;;10.90;99.90;;;;;;5005728;28;20059;-84
2023/09/23 07:08:39;;;;;;;0.80;0.50;;;10.90;99.90;;;;;;5022942;28;20025;-85
2023/09/23 07:11:12;;;;;;;1.25;0.60;;;10.90;99.90;;;;;;5023780;28;20040;-84
2023/09/23 07:13:38;;;;;;;1.35;0.60;;;10.90;99.90;;;;;;5037779;28;20537;-84
2023/09/23 07:16:03;;;;;;;1.05;0.60;;;10.90;99.90;;;;;;5002741;28;20071;-84
2023/09/23 07:18:29;;;;;;;0.93;0.40;;;11.00;99.90;;;;;;5017565;28;20029;-84
2023/09/23 07:20:58;;;;;;;0.95;0.60;;;11.00;99.90;;;;;;5021938;28;20063;-84
2023/09/23 07:23:24;;;;;;;0.85;0.40;;;11.00;99.90;;;;;;5037816;28;20082;-85
2023/09/23 07:25:50;;;;;;;1.45;0.63;;;11.00;99.90;;;;;;5034334;28;20496;-84
2023/09/23 07:28:16;;;;;;;0.93;0.50;;;11.00;99.90;;;;;;5034446;28;20036;-84
2023/09/23 07:30:42;;;;;;;1.10;0.70;;;11.10;99.90;;;;;;5044897;28;20025;-84
2023/09/23 07:33:08;;;;;;;1.10;0.70;;;11.10;99.90;;;;;;5055725;28;20556;-84
2023/09/23 07:35:34;;;;;;;1.70;0.55;;;11.10;99.90;;;;;;5021125;28;20074;-84
2023/09/23 07:38:01;;;;;;;1.85;0.70;;;11.20;99.90;;;;;;5037791;28;20029;-84
2023/09/23 07:40:30;;;;;;;1.75;0.60;;;11.20;99.90;;;;;;5021462;28;20534;-84
2023/09/23 07:42:56;;;;;;;1.70;0.70;;;11.20;99.90;;;;;;5038212;28;20028;-84
2023/09/23 07:45:22;;;;;;;1.02;0.68;;;11.30;99.90;;;;;;5013541;28;20025;-84
2023/09/23 07:47:48;;;;;;;1.58;0.80;;;11.30;99.90;;;;;;5011857;28;20119;-84
2023/09/23 07:50:15;;;;;;;1.70;0.90;;;11.40;99.90;;;;;;5036203;28;20056;-84
2023/09/23 07:52:41;;;;;;;1.67;1.00;;;11.40;99.90;;;;;;5019852;28;20025;-84
2023/09/23 07:55:06;;;;;;;1.10;0.70;;;11.40;99.90;;;;;;4997922;28;20080;-86
2023/09/23 07:57:32;;;;;;;1.67;0.90;;;11.50;99.90;;;;;;5037642;28;20068;-84
2023/09/23 07:59:59;;;;;;;1.42;0.82;;;11.50;99.90;;;;;;5021840;28;20468;-84
2023/09/23 08:02:25;;;;;;;2.65;1.20;;;11.60;99.90;;;;;;5029715;28;20108;-85
2023/09/23 08:04:51;;;;;;;2.03;1.15;;;11.60;99.90;;;;;;5050414;28;20017;-83
2023/09/23 08:07:17;;;;;;;2.45;1.08;;;11.60;99.90;;;;;;5024157;28;20512;-84
2023/09/23 08:09:42;;;;;;;2.00;0.90;;;11.70;99.90;;;;;;5028323;28;20110;-83
2023/09/23 08:12:09;;;;;;;2.05;0.77;;;11.60;99.90;;;;;;5037704;28;20130;-83
2023/09/23 08:14:35;;;;;;;1.88;0.80;;;11.70;99.90;;;;;;5021959;28;20473;-83
2023/09/23 08:17:01;;;;;;;1.88;0.85;;;11.80;99.90;;;;;;5005684;28;20025;-84
2023/09/23 08:19:27;;;;;;;1.70;0.90;;;11.80;99.90;;;;;;5005750;28;20082;-84
2023/09/23 08:21:52;;;;;;;2.85;1.00;;;11.90;99.90;;;;;;5040369;28;20021;-84
2023/09/23 08:24:19;;;;;;;1.40;0.88;;;11.90;99.90;;;;;;5008096;28;20022;-84
2023/09/23 08:26:44;;;;;;;1.42;0.75;;;11.90;99.90;;;;;;5029298;28;20029;-84
2023/09/23 08:29:10;;;;;;;1.83;0.90;;;12.00;99.90;;;;;;5038753;28;20082;-83
2023/09/23 08:31:36;;;;;;;1.35;0.63;;;12.00;99.90;;;;;;5000734;28;20481;-83
2023/09/23 08:34:04;;;;;;;1.60;0.85;;;12.00;99.90;;;;;;5021381;28;20501;-84
2023/09/23 08:36:30;;;;;;;1.55;0.65;;;12.10;99.90;;;;;;5024840;28;20035;-84
2023/09/23 08:38:55;;;;;;;6.43;2.25;;;12.10;99.90;;;;;;5009005;28;20025;-85
2023/09/23 08:41:22;;;;;;;11.38;2.90;;;12.10;99.90;;;;;;5029002;28;20025;-85
2023/09/23 08:43:50;;;;;;;5.00;2.03;;;12.10;99.90;;;;;;5022140;28;20029;-84
2023/09/23 08:46:19;;;;;;;2.90;1.30;;;12.00;99.90;;;;;;5060298;28;20448;-84
2023/09/23 08:48:45;;;;;;;3.00;1.20;;;12.00;99.90;;;;;;5042008;28;20017;-84
2023/09/23 08:51:12;;;;;;;2.10;1.10;;;11.90;99.90;;;;;;5008333;28;20028;-83
2023/09/23 08:53:39;;;;;;;12.52;4.05;;;11.90;99.90;;;;;;5024639;28;20387;-83
2023/09/23 08:56:06;;;;;;;11.50;3.50;;;11.80;99.90;;;;;;5042337;28;20028;-83
2023/09/23 08:58:32;;;;;;;7.28;2.33;;;11.80;99.90;;;;;;5041362;28;20894;-83
2023/09/23 09:00:58;;;;;;;6.68;2.30;;;11.80;99.90;;;;;;5024763;28;20029;-83
2023/09/23 09:03:24;;;;;;;6.25;2.00;;;11.70;99.90;;;;;;5035849;28;20553;-84
2023/09/23 09:05:50;;;;;;;1.50;0.80;;;11.70;99.90;;;;;;5034353;28;20060;-84
2023/09/23 09:08:18;;;;;;;1.40;0.70;;;11.60;99.90;;;;;;5013936;28;20033;-84
2023/09/23 09:10:44;;;;;;;1.92;0.93;;;11.60;99.90;;;;;;5032484;28;20436;-84
2023/09/23 09:13:10;;;;;;;0.68;0.47;;;11.60;99.90;;;;;;4995546;28;20022;-84
2023/09/23 09:15:37;;;;;;;2.05;0.55;;;11.60;99.90;;;;;;5038945;28;20022;-84
2023/09/23 09:18:04;;;;;;;1.42;0.50;;;11.50;99.90;;;;;;5041708;28;20036;-83
2023/09/23 09:20:30;;;;;;;1.25;0.30;;;11.60;99.90;;;;;;5018963;28;20497;-83
2023/09/23 09:22:56;;;;;;;0.60;0.30;;;11.70;99.90;;;;;;5015591;28;20167;-83
2023/09/23 09:25:21;;;;;;;0.52;0.20;;;11.80;99.90;;;;;;5052907;28;20059;-82
2023/09/23 09:27:48;;;;;;;0.68;0.20;;;11.80;99.90;;;;;;5055474;28;20543;-82
2023/09/23 09:30:14;;;;;;;0.75;0.30;;;11.90;99.90;;;;;;5036890;28;20028;-82
2023/09/23 09:32:44;;;;;;;0.43;0.20;;;11.90;99.90;;;;;;5043272;28;20047;-83
2023/09/23 09:35:17;;;;;;;0.47;0.20;;;12.10;99.90;;;;;;5043303;28;20021;-83
2023/09/23 09:37:48;;;;;;;0.52;0.20;;;12.10;99.90;;;;;;5046100;28;20040;-83
2023/09/23 09:40:21;;;;;;;0.40;0.15;;;12.20;99.90;;;;;;5031862;28;20048;-83
2023/09/23 09:42:54;;;;;;;1.40;0.40;;;12.20;99.90;;;;;;5031766;28;20126;-83
2023/09/23 09:45:21;;;;;;;0.95;0.30;;;12.30;99.90;;;;;;5043812;28;20044;-84
2023/09/23 09:47:51;;;;;;;0.80;0.30;;;12.30;99.90;;;;;;5021344;28;20056;-84
2023/09/23 09:50:17;;;;;;;1.02;0.28;;;12.30;99.90;;;;;;5025138;28;20468;-84
2023/09/23 09:52:44;;;;;;;0.35;0.10;;;12.40;99.90;;;;;;5019009;28;20065;-85
2023/09/23 09:55:15;;;;;;;0.52;0.30;;;12.40;99.90;;;;;;5052584;28;20027;-84
2023/09/23 09:57:41;;;;;;;0.40;0.17;;;12.50;99.90;;;;;;5037508;28;20025;-84
2023/09/23 10:00:22;;;;;;;0.65;0.20;;;12.40;99.90;;;;;;5019559;28;20029;-84
2023/09/23 10:02:48;;;;;;;1.10;0.30;;;12.50;99.90;;;;;;5003737;28;20120;-84
2023/09/23 10:05:18;;;;;;;0.20;0.20;;;12.50;99.90;;;;;;5004853;28;20112;-84
2023/09/23 10:07:57;;;;;;;0.20;0.20;;;12.50;99.90;;;;;;5017992;28;20040;-84
2023/09/23 10:10:33;;;;;;;0.57;0.25;;;12.60;99.90;;;;;;5037046;28;20153;-84
2023/09/23 10:13:12;;;;;;;1.13;0.30;;;12.60;99.90;;;;;;5033918;28;20029;-84
2023/09/23 10:15:40;;;;;;;0.70;0.30;;;12.60;99.90;;;;;;5030289;28;20117;-83
2023/09/23 10:18:11;;;;;;;0.57;0.20;;;12.60;99.90;;;;;;5037373;28;20488;-84
2023/09/23 10:21:02;;;;;;;0.93;0.17;;;12.60;99.90;;;;;;5036867;28;20025;-84
2023/09/23 10:23:35;;;;;;;0.50;0.20;;;12.60;99.90;;;;;;5037175;28;20025;-83
2023/09/23 10:26:13;;;;;;;0.13;0.10;;;12.70;99.90;;;;;;5036839;28;20021;-84
2023/09/23 10:28:39;;;;;;;0.15;0.10;;;12.70;99.90;;;;;;5037104;28;20025;-83
2023/09/23 10:31:06;;;;;;;0.32;0.20;;;12.80;99.90;;;;;;5029099;28;20036;-83
2023/09/23 10:33:35;;;;;;;1.45;0.30;;;12.80;99.90;;;;;;5017876;28;20481;-83
2023/09/23 10:36:05;;;;;;;0.90;0.20;;;12.80;99.90;;;;;;5018039;28;20026;-85
2023/09/23 10:38:37;;;;;;;0.50;0.20;;;12.90;99.90;;;;;;5016926;28;20032;-84
2023/09/23 10:41:04;;;;;;;0.10;0.10;;;12.90;99.90;;;;;;5037870;28;20035;-83
2023/09/23 10:43:31;;;;;;;0.40;0.20;;;12.90;99.90;;;;;;5017589;28;20501;-84
2023/09/23 10:45:58;;;;;;;0.10;0.10;;;13.00;99.90;;;;;;5016303;28;20024;-85
2023/09/23 10:48:25;;;;;;;0.88;0.28;;;12.90;99.90;;;;;;5020882;28;20558;-83
2023/09/23 10:50:51;;;;;;;0.25;0.20;;;12.90;99.90;;;;;;5037052;28;20025;-83
2023/09/23 10:53:18;;;;;;;0.65;0.22;;;12.90;99.90;;;;;;5029376;28;20029;-83
2023/09/23 10:55:45;;;;;;;0.25;0.20;;;13.00;99.90;;;;;;5022654;28;20494;-83
2023/09/23 10:58:11;;;;;;;0.40;0.20;;;12.90;99.90;;;;;;5011532;28;20037;-83
2023/09/23 11:00:37;;;;;;;0.45;0.20;;;12.90;99.90;;;;;;5036253;28;20385;-83
2023/09/23 11:03:16;;;;;;;0.73;0.35;;;12.90;99.90;;;;;;5041340;28;20401;-83
2023/09/23 11:05:43;;;;;;;1.08;0.30;;;13.00;99.90;;;;;;5035412;28;21132;-83
2023/09/23 11:08:14;;;;;;;2.38;0.70;;;13.00;99.90;;;;;;5034107;28;20033;-84
2023/09/23 11:10:44;;;;;;;2.10;0.60;;;12.90;99.90;;;;;;5035991;28;20507;-84
2023/09/23 11:13:12;;;;;;;1.30;0.50;;;12.90;99.90;;;;;;5036396;28;20268;-83
2023/09/23 11:15:39;;;;;;;0.85;0.40;;;12.80;99.90;;;;;;5035207;28;20037;-84
2023/09/23 11:18:10;;;;;;;0.73;0.30;;;12.80;99.90;;;;;;5007552;28;20037;-84
2023/09/23 11:20:38;;;;;;;0.65;0.30;;;12.70;99.90;;;;;;5015799;28;20022;-83
2023/09/23 11:23:05;;;;;;;0.43;0.10;;;12.80;99.90;;;;;;5036222;28;20057;-83
2023/09/23 11:25:41;;;;;;;0.10;0.10;;;12.80;99.90;;;;;;5050678;28;20025;-83
2023/09/23 11:28:14;;;;;;;0.30;0.13;;;12.70;99.90;;;;;;5035440;28;20116;-84
2023/09/23 11:30:40;;;;;;;0.50;0.20;;;12.70;99.90;;;;;;5028561;28;20033;-84
2023/09/23 11:33:06;;;;;;;0.60;0.20;;;12.70;99.90;;;;;;5020473;28;20025;-84
2023/09/23 11:35:33;;;;;;;0.32;0.22;;;12.80;99.90;;;;;;4987590;28;20056;-84
2023/09/23 11:38:00;;;;;;;0.73;0.32;;;12.80;99.90;;;;;;5011743;28;20063;-83
2023/09/23 11:40:25;;;;;;;0.47;0.25;;;12.90;99.90;;;;;;5015010;28;20687;-84
2023/09/23 11:42:51;;;;;;;0.50;0.30;;;13.00;99.90;;;;;;5008262;28;20125;-84
2023/09/23 11:45:17;;;;;;;0.20;0.20;;;13.00;99.90;;;;;;4999713;28;20039;-84
2023/09/23 11:47:43;;;;;;;0.80;0.30;;;12.90;99.90;;;;;;5030064;28;20053;-82
2023/09/23 11:50:09;;;;;;;0.30;0.20;;;13.00;99.90;;;;;;5018275;28;20033;-82
2023/09/23 11:52:35;;;;;;;0.20;0.20;;;12.90;99.90;;;;;;5020211;28;20032;-82
2023/09/23 11:55:01;;;;;;;1.95;0.35;;;12.90;99.90;;;;;;5036557;28;20070;-82
2023/09/23 11:57:27;;;;;;;0.25;0.10;;;12.90;99.90;;;;;;5023685;28;20123;-82
2023/09/23 11:59:53;;;;;;;0.60;0.20;;;13.00;99.90;;;;;;5024159;28;20033;-82
2023/09/23 12:02:19;;;;;;;0.30;0.15;;;13.00;99.90;;;;;;5039936;28;20021;-82
2023/09/23 12:04:48;;;;;;;0.52;0.20;;;13.00;99.90;;;;;;5037602;28;20029;-84
2023/09/23 12:07:15;;;;;;;1.20;0.40;;;13.00;99.90;;;;;;5040233;28;20037;-82
2023/09/23 12:09:41;;;;;;;1.08;0.50;;;13.00;99.90;;;;;;5040333;28;20044;-81
2023/09/23 12:12:12;;;;;;;2.03;0.70;;;13.10;99.90;;;;;;5040438;28;20063;-82
2023/09/23 12:14:44;;;;;;;1.60;0.80;;;13.10;99.90;;;;;;5015748;28;20086;-84
2023/09/23 12:17:14;;;;;;;1.23;0.70;;;13.10;99.90;;;;;;5020418;28;20033;-82
2023/09/23 12:19:44;;;;;;;1.20;0.50;;;13.10;99.90;;;;;;5022325;28;20505;-82
2023/09/23 12:22:12;;;;;;;0.60;0.30;;;13.10;99.90;;;;;;5025517;28;20076;-82
2023/09/23 12:24:40;;;;;;;1.15;0.40;;;13.00;99.90;;;;;;5024290;28;20057;-82
2023/09/23 12:27:06;;;;;;;2.00;0.28;;;13.00;99.90;;;;;;5024723;28;20044;-82
2023/09/23 12:29:31;;;;;;;1.48;0.30;;;13.00;99.90;;;;;;5024241;28;20033;-82
2023/09/23 12:31:57;;;;;;;0.82;0.35;;;13.00;99.90;;;;;;5008142;28;20025;-82
2023/09/23 12:34:23;;;;;;;0.95;0.30;;;13.00;99.90;;;;;;5024367;28;20032;-82
2023/09/23 12:36:49;;;;;;;5.13;2.20;;;13.00;99.90;;;;;;5040706;28;20032;-82
2023/09/23 12:39:16;;;;;;;7.25;4.75;;;13.10;99.90;;;;;;5017514;28;20057;-82
2023/09/23 12:41:42;;;;;;;3.80;2.80;;;13.10;99.90;;;;;;5016767;28;20044;-82
2023/09/23 12:44:09;;;;;;;2.85;1.75;;;13.00;99.90;;;;;;5022584;28;20045;-82
2023/09/23 12:46:34;;;;;;;2.35;1.50;;;13.00;99.90;;;;;;5024599;28;20029;-82